Terminal Aerodrome Forecast
Issued by NWS Mt. Holly, NJ

Home | Current Version | Previous Version | Text Only | Print | Product List | Glossary On
Versions: 1 2 3 4 5 6 7 8 9 10 11 12 13 14 15 16 17 18 19 20 21 22 23 24 25 26 27 28 29 30 31 32
000
FTUS41 KPHI 301720
TAFPHL
TAF
KPHL 301720Z 3018/0124 12007KT P6SM BKN050
     FM010600 11005KT P6SM -RA OVC035
     FM010800 09009KT 5SM -RA SCT009 OVC025
     FM011300 12010KT 2SM RA BR OVC009
     FM012200 06008KT 4SM -SHRA BR OVC025=

USA.gov is the U.S. government's official web portal to all federal, state and local government web resources and services.